createdAt,value
2022-08-12T00:00:49.025Z,25.70
2022-08-12T00:03:34.471Z,25.67
2022-08-12T00:06:20.218Z,25.64
2022-08-12T00:09:05.445Z,25.63
2022-08-12T00:11:52.392Z,25.56
2022-08-12T00:14:37.661Z,25.49
2022-08-12T00:17:23.542Z,25.45
2022-08-12T00:20:09.398Z,25.39
2022-08-12T00:22:59.009Z,25.34
2022-08-12T00:26:20.477Z,25.35
2022-08-12T00:29:03.621Z,25.40
2022-08-12T00:31:49.302Z,25.44
2022-08-12T00:34:34.731Z,25.37
2022-08-12T00:37:20.022Z,25.29
2022-08-12T00:40:11.422Z,25.22
2022-08-12T00:42:39.490Z,25.14
2022-08-12T00:45:09.999Z,25.05
2022-08-12T00:47:38.188Z,25.00
2022-08-12T00:50:07.395Z,24.95
2022-08-12T00:52:36.152Z,24.93
2022-08-12T00:55:04.810Z,24.87
2022-08-12T00:57:35.850Z,24.82
2022-08-12T01:00:08.553Z,24.79
2022-08-12T01:02:40.645Z,24.78
2022-08-12T01:05:28.074Z,24.77
2022-08-12T01:08:13.726Z,24.72
2022-08-12T01:11:01.183Z,24.72
2022-08-12T01:13:29.946Z,24.75
2022-08-12T01:15:59.574Z,24.78
2022-08-12T01:18:30.404Z,24.81
2022-08-12T01:21:05.724Z,24.81
2022-08-12T01:23:55.990Z,24.77
2022-08-12T01:26:26.390Z,24.71
2022-08-12T01:28:58.467Z,24.70
2022-08-12T01:31:27.579Z,24.68
2022-08-12T01:34:03.067Z,24.64
2022-08-12T01:36:33.425Z,24.61
2022-08-12T01:39:02.050Z,24.62
2022-08-12T01:41:31.969Z,24.59
2022-08-12T01:44:01.072Z,24.54
2022-08-12T01:46:40.656Z,24.49
2022-08-12T01:49:21.770Z,24.45
2022-08-12T01:52:21.806Z,24.44
2022-08-12T01:54:45.095Z,24.47
2022-08-12T01:57:17.308Z,24.48
2022-08-12T02:00:07.422Z,24.53
2022-08-12T02:02:42.136Z,24.63
2022-08-12T02:05:43.991Z,24.66
2022-08-12T02:08:36.395Z,24.65
2022-08-12T02:11:19.316Z,24.65
2022-08-12T02:14:00.238Z,24.59
2022-08-12T02:16:38.002Z,24.49
2022-08-12T02:19:22.632Z,24.40
2022-08-12T02:21:55.689Z,24.30
2022-08-12T02:24:23.819Z,24.29
2022-08-12T02:26:52.596Z,24.30
2022-08-12T02:29:22.295Z,24.29
2022-08-12T02:31:50.384Z,24.27
2022-08-12T02:34:19.187Z,24.22
2022-08-12T02:36:47.349Z,24.17
2022-08-12T02:39:16.707Z,24.15
2022-08-12T02:41:45.535Z,24.13
2022-08-12T02:44:15.184Z,24.11
2022-08-12T02:46:50.441Z,24.14
2022-08-12T02:49:24.113Z,24.20
2022-08-12T02:51:52.255Z,24.22
2022-08-12T02:54:20.470Z,24.18
2022-08-12T02:56:50.821Z,24.12
2022-08-12T02:59:21.109Z,24.05
2022-08-12T03:01:53.503Z,23.96
2022-08-12T03:04:27.356Z,23.91
2022-08-12T03:07:02.310Z,23.90
2022-08-12T03:09:42.186Z,23.94
2022-08-12T03:12:20.895Z,23.92
2022-08-12T03:14:50.097Z,23.90
2022-08-12T03:17:23.339Z,23.90
2022-08-12T03:20:10.409Z,23.90
2022-08-12T03:22:40.666Z,23.87
2022-08-12T03:25:11.868Z,23.84
2022-08-12T03:27:40.522Z,23.81
2022-08-12T03:30:09.502Z,23.76
2022-08-12T03:32:41.550Z,23.70
2022-08-12T03:35:10.214Z,23.69
2022-08-12T03:37:59.321Z,23.67
2022-08-12T03:40:45.308Z,23.65
2022-08-12T03:43:35.701Z,23.63
2022-08-12T03:46:24.522Z,23.64
2022-08-12T03:49:11.496Z,23.60
2022-08-12T03:51:56.778Z,23.58
2022-08-12T03:54:42.689Z,23.48
2022-08-12T03:57:28.495Z,23.41
2022-08-12T04:00:24.290Z,23.28
2022-08-12T04:02:59.132Z,23.15
2022-08-12T04:05:32.939Z,23.12
2022-08-12T04:08:17.065Z,23.09
2022-08-12T04:11:02.809Z,23.08
2022-08-12T04:13:30.913Z,23.07
2022-08-12T04:16:02.212Z,23.07
2022-08-12T04:18:30.362Z,23.03
2022-08-12T04:21:02.296Z,23.06
2022-08-12T04:23:31.393Z,23.09
2022-08-12T04:25:59.477Z,23.11
2022-08-12T04:28:28.598Z,23.13
2022-08-12T04:30:57.458Z,23.15
2022-08-12T04:33:27.021Z,23.16
2022-08-12T04:35:55.262Z,23.08
2022-08-12T04:38:25.102Z,23.03
2022-08-12T04:40:53.750Z,23.03
2022-08-12T04:44:00.046Z,23.00
2022-08-12T04:46:09.891Z,22.93
2022-08-12T04:48:37.990Z,22.87
2022-08-12T04:51:06.416Z,22.83
2022-08-12T04:53:36.116Z,22.81
2022-08-12T04:56:04.459Z,22.83
2022-08-12T04:58:32.649Z,22.82
2022-08-12T05:01:01.107Z,22.78
2022-08-12T05:03:29.152Z,22.78
2022-08-12T05:06:16.982Z,22.80
2022-08-12T05:08:56.587Z,22.80
2022-08-12T05:11:24.870Z,22.79
2022-08-12T05:14:00.860Z,22.75
2022-08-12T05:16:34.073Z,22.73
2022-08-12T05:19:05.057Z,22.74
2022-08-12T05:21:33.527Z,22.77
2022-08-12T05:24:03.098Z,22.78
2022-08-12T05:26:31.313Z,22.80
2022-08-12T05:28:59.415Z,22.81
2022-08-12T05:31:40.331Z,22.80
2022-08-12T05:34:16.416Z,22.75
2022-08-12T05:36:45.102Z,22.80
2022-08-12T05:39:14.625Z,22.81
2022-08-12T05:41:42.822Z,22.80
2022-08-12T05:44:12.720Z,22.79
2022-08-12T05:46:41.259Z,22.82
2022-08-12T05:49:09.357Z,22.80
2022-08-12T05:51:41.077Z,22.82
2022-08-12T05:54:10.481Z,22.81
2022-08-12T05:56:40.829Z,22.82
2022-08-12T05:59:11.269Z,22.88
2022-08-12T06:02:11.253Z,22.96
2022-08-12T06:04:29.577Z,23.02
2022-08-12T06:06:57.658Z,23.10
2022-08-12T06:09:26.462Z,23.15
2022-08-12T06:12:05.983Z,23.21
2022-08-12T06:14:37.842Z,23.24
2022-08-12T06:17:09.088Z,23.29
2022-08-12T06:20:28.201Z,23.36
2022-08-12T06:22:26.861Z,23.48
2022-08-12T06:24:55.132Z,23.57
2022-08-12T06:27:24.580Z,23.65
2022-08-12T06:30:07.378Z,23.73
2022-08-12T06:32:52.004Z,23.83
2022-08-12T06:35:48.546Z,23.93
2022-08-12T06:38:17.417Z,24.07
2022-08-12T06:41:03.445Z,24.20
2022-08-12T06:44:06.897Z,24.31
2022-08-12T06:46:22.111Z,24.47
2022-08-12T06:48:55.189Z,24.60
2022-08-12T06:51:23.388Z,24.72
2022-08-12T06:53:51.536Z,24.85
2022-08-12T06:56:20.623Z,24.95
2022-08-12T06:58:50.136Z,25.05
2022-08-12T07:01:18.689Z,25.13
2022-08-12T07:03:47.093Z,25.21
2022-08-12T07:06:15.707Z,25.34
2022-08-12T07:08:44.621Z,25.47
2022-08-12T07:11:13.693Z,25.61
2022-08-12T07:14:02.442Z,25.75
2022-08-12T07:16:48.174Z,25.89
2022-08-12T07:19:16.588Z,26.03
2022-08-12T07:21:59.927Z,26.12
2022-08-12T07:24:31.499Z,26.24
2022-08-12T07:26:59.630Z,26.37
2022-08-12T07:29:58.342Z,26.51
2022-08-12T07:32:18.433Z,26.66
2022-08-12T07:34:47.462Z,26.79
2022-08-12T07:37:17.886Z,26.94
2022-08-12T07:39:50.709Z,27.07
2022-08-12T07:42:28.331Z,27.25
2022-08-12T07:44:57.005Z,27.39
2022-08-12T07:47:26.979Z,27.49
2022-08-12T07:50:04.910Z,27.58
2022-08-12T07:52:34.944Z,27.67
2022-08-12T07:55:03.387Z,27.79
2022-08-12T07:57:32.874Z,27.92
2022-08-12T08:00:04.995Z,28.01
2022-08-12T08:02:37.205Z,28.12
2022-08-12T08:05:08.261Z,28.17
2022-08-12T08:07:36.891Z,28.33
2022-08-12T08:10:07.403Z,28.40
2022-08-12T08:12:55.583Z,28.52
2022-08-12T08:15:44.468Z,28.60
2022-08-12T08:18:26.654Z,28.68
2022-08-12T08:20:56.498Z,28.76
2022-08-12T08:23:46.443Z,28.84
2022-08-12T08:26:16.674Z,29.00
2022-08-12T08:28:46.010Z,29.09
2022-08-12T08:31:15.195Z,29.21
2022-08-12T08:34:09.390Z,29.33
2022-08-12T08:36:33.183Z,29.44
2022-08-12T08:39:02.368Z,29.53
2022-08-12T08:42:17.517Z,29.64
2022-08-12T08:44:39.452Z,29.78
2022-08-12T08:47:07.961Z,29.92
2022-08-12T08:49:37.747Z,30.00
2022-08-12T08:52:06.801Z,30.08
2022-08-12T08:54:35.676Z,30.19
2022-08-12T08:57:04.037Z,30.31
2022-08-12T08:59:35.401Z,30.38
2022-08-12T09:02:04.061Z,30.47
2022-08-12T09:05:12.290Z,30.58
2022-08-12T09:08:08.972Z,30.73
2022-08-12T09:10:45.948Z,30.91
2022-08-12T09:16:21.229Z,31.30
2022-08-12T09:21:54.186Z,31.70
2022-08-12T09:24:27.851Z,31.87
2022-08-12T09:26:59.917Z,31.98
2022-08-12T09:30:11.841Z,32.07
2022-08-12T09:32:29.461Z,32.19
2022-08-12T09:35:21.842Z,32.37
2022-08-12T09:37:57.782Z,32.48
2022-08-12T09:41:01.963Z,32.56
2022-08-12T09:43:35.591Z,32.70
2022-08-12T09:46:11.147Z,32.79
2022-08-12T09:48:56.746Z,32.92
2022-08-12T09:51:37.959Z,33.06
2022-08-12T09:54:33.257Z,33.17
2022-08-12T09:58:46.030Z,33.31
2022-08-12T10:00:12.549Z,33.43
2022-08-12T10:03:09.540Z,33.58
2022-08-12T10:06:27.298Z,33.75
2022-08-12T10:08:59.185Z,33.90
2022-08-12T10:12:11.511Z,33.97
2022-08-12T10:14:37.060Z,34.11
2022-08-12T10:17:08.613Z,34.23
2022-08-12T10:19:40.326Z,34.39
2022-08-12T10:22:36.795Z,34.56
2022-08-12T10:26:36.050Z,34.75
2022-08-12T10:28:38.351Z,34.89
2022-08-12T10:31:16.602Z,35.04
2022-08-12T10:34:06.244Z,35.19
2022-08-12T10:36:39.881Z,35.31
2022-08-12T10:40:01.075Z,35.49
2022-08-12T10:42:29.474Z,35.68
2022-08-12T10:45:03.502Z,35.87
2022-08-12T10:48:16.009Z,35.97
2022-08-12T10:50:33.893Z,36.17
2022-08-12T10:53:11.774Z,36.36
2022-08-12T10:55:56.254Z,36.47
2022-08-12T10:58:31.804Z,36.59
2022-08-12T11:01:49.768Z,36.76
2022-08-12T11:04:23.738Z,36.89
2022-08-12T11:07:08.851Z,37.02
2022-08-12T11:09:55.652Z,37.17
2022-08-12T11:12:55.111Z,37.29
2022-08-12T11:15:32.709Z,37.39
2022-08-12T11:18:18.511Z,37.27
2022-08-12T11:20:50.589Z,37.38
2022-08-12T11:23:36.620Z,37.42
2022-08-12T11:26:08.176Z,37.50
2022-08-12T11:28:39.448Z,37.53
2022-08-12T11:31:12.245Z,37.65
2022-08-12T11:34:05.951Z,37.85
2022-08-12T11:36:32.622Z,37.90
2022-08-12T11:39:12.506Z,38.03
2022-08-12T11:41:44.795Z,38.19
2022-08-12T11:44:36.734Z,38.35
2022-08-12T11:47:13.902Z,38.57
2022-08-12T11:49:51.871Z,38.79
2022-08-12T11:52:55.433Z,38.96
2022-08-12T11:55:14.809Z,39.13
2022-08-12T11:58:18.298Z,39.30
2022-08-12T12:03:44.194Z,39.47
2022-08-12T12:06:18.012Z,39.60
2022-08-12T12:08:51.348Z,39.76
2022-08-12T12:11:22.569Z,39.96
2022-08-12T12:14:08.100Z,40.14
2022-08-12T12:16:42.052Z,40.28
2022-08-12T12:19:19.182Z,40.34
2022-08-12T12:21:50.535Z,40.57
2022-08-12T12:24:22.126Z,40.79
2022-08-12T12:27:00.391Z,41.03
2022-08-12T12:30:17.491Z,41.23
2022-08-12T12:32:29.493Z,41.47
2022-08-12T12:35:14.404Z,41.67
2022-08-12T12:38:05.062Z,41.88
2022-08-12T12:40:43.693Z,42.06
2022-08-12T12:43:14.544Z,42.19
2022-08-12T12:45:44.528Z,42.29
2022-08-12T12:48:17.561Z,42.43
2022-08-12T12:50:51.663Z,42.58
2022-08-12T12:54:06.565Z,42.70
2022-08-12T12:56:21.094Z,42.83
2022-08-12T12:59:03.927Z,42.93
2022-08-12T13:01:38.347Z,43.10
2022-08-12T13:04:12.249Z,43.30
2022-08-12T13:06:41.277Z,43.43
2022-08-12T13:09:13.503Z,43.15
2022-08-12T13:11:44.489Z,42.83
2022-08-12T13:14:29.118Z,42.88
2022-08-12T13:17:02.760Z,43.12
2022-08-12T13:19:44.485Z,43.42
2022-08-12T13:22:20.454Z,43.72
2022-08-12T13:24:55.846Z,43.82
2022-08-12T13:27:34.887Z,43.52
2022-08-12T13:30:11.482Z,43.18
2022-08-12T13:32:41.039Z,43.27
2022-08-12T13:35:19.999Z,43.62
2022-08-12T13:38:02.703Z,44.06
2022-08-12T13:40:34.059Z,44.40
2022-08-12T13:43:05.539Z,44.71
2022-08-12T13:45:34.425Z,44.89
2022-08-12T13:48:04.221Z,44.99
2022-08-12T13:50:33.579Z,44.96
2022-08-12T13:53:23.419Z,44.99
2022-08-12T13:55:59.567Z,45.26
2022-08-12T13:58:30.768Z,45.41
2022-08-12T14:01:06.154Z,45.50
2022-08-12T14:03:50.298Z,45.67
2022-08-12T14:06:20.114Z,45.66
2022-08-12T14:08:52.765Z,45.71
2022-08-12T14:11:25.476Z,45.90
2022-08-12T14:14:05.364Z,46.12
2022-08-12T14:16:49.149Z,46.20
2022-08-12T14:19:25.051Z,46.25
2022-08-12T14:22:00.212Z,46.41
2022-08-12T14:24:35.761Z,46.53
2022-08-12T14:27:09.298Z,46.75
2022-08-12T14:30:05.494Z,46.84
2022-08-12T14:32:34.917Z,46.88
2022-08-12T14:35:06.640Z,46.97
2022-08-12T14:37:56.009Z,47.02
2022-08-12T14:40:29.601Z,47.03
2022-08-12T14:43:00.164Z,47.05
2022-08-12T14:45:37.196Z,46.91
2022-08-12T14:48:15.457Z,46.91
2022-08-12T14:51:03.139Z,47.02
2022-08-12T14:59:56.944Z,47.68
2022-08-12T15:02:29.101Z,47.80
2022-08-12T15:04:59.691Z,47.79
2022-08-12T15:07:33.523Z,47.77
2022-08-12T15:10:31.259Z,47.78
2022-08-12T15:13:07.103Z,47.89
2022-08-12T15:15:43.730Z,48.11
2022-08-12T15:18:15.261Z,48.21
2022-08-12T15:20:43.499Z,48.33
2022-08-12T15:23:17.937Z,48.39
2022-08-12T15:25:50.324Z,48.47
2022-08-12T15:28:34.273Z,48.41
2022-08-12T15:31:21.679Z,48.41
2022-08-12T15:33:58.233Z,48.59
2022-08-12T15:36:50.250Z,48.60
2022-08-12T15:39:21.452Z,48.44
2022-08-12T15:41:55.653Z,48.41
2022-08-12T15:44:37.739Z,48.42
2022-08-12T15:47:09.103Z,48.55
2022-08-12T15:49:43.405Z,48.68
2022-08-12T15:52:27.530Z,48.65
2022-08-12T15:55:05.038Z,48.47
2022-08-12T15:57:41.483Z,48.21
2022-08-12T16:00:22.500Z,48.06
2022-08-12T16:03:19.024Z,47.90
2022-08-12T16:06:17.139Z,47.61
2022-08-12T16:08:39.614Z,47.50
2022-08-12T16:11:15.483Z,47.43
2022-08-12T16:13:49.587Z,47.25
2022-08-12T16:16:24.132Z,47.25
2022-08-12T16:19:01.963Z,47.28
2022-08-12T16:21:50.423Z,47.27
2022-08-12T16:24:22.064Z,47.21
2022-08-12T16:26:54.149Z,47.01
2022-08-12T16:29:38.714Z,46.70
2022-08-12T16:32:23.173Z,46.55
2022-08-12T16:34:57.677Z,46.46
2022-08-12T16:37:32.634Z,46.46
2022-08-12T16:40:18.800Z,46.49
2022-08-12T16:42:53.719Z,46.53
2022-08-12T16:46:07.954Z,46.41
2022-08-12T16:48:34.714Z,46.02
2022-08-12T16:51:09.450Z,45.97
2022-08-12T16:53:44.247Z,45.94
2022-08-12T16:56:15.596Z,45.82
2022-08-12T16:58:47.274Z,45.72
2022-08-12T17:01:16.620Z,45.58
2022-08-12T17:03:52.150Z,45.58
2022-08-12T17:06:42.416Z,45.57
2022-08-12T17:09:17.568Z,45.48
2022-08-12T17:11:49.457Z,45.36
2022-08-12T17:14:22.934Z,45.26
2022-08-12T17:16:55.163Z,45.14
2022-08-12T17:20:30.601Z,45.02
2022-08-12T17:22:16.735Z,44.81
2022-08-12T17:24:55.424Z,44.62
2022-08-12T17:27:26.438Z,44.52
2022-08-12T17:30:04.489Z,44.40
2022-08-12T17:32:37.189Z,44.30
2022-08-12T17:35:22.963Z,44.24
2022-08-12T17:38:02.128Z,44.05
2022-08-12T17:40:35.332Z,43.94
2022-08-12T17:43:57.313Z,43.89
2022-08-12T17:45:58.743Z,43.88
2022-08-12T17:48:35.069Z,43.66
2022-08-12T17:51:15.185Z,43.43
2022-08-12T17:54:11.344Z,43.15
2022-08-12T17:56:37.374Z,42.88
2022-08-12T17:59:07.697Z,42.70
2022-08-12T18:01:36.642Z,42.41
2022-08-12T18:04:21.992Z,42.07
2022-08-12T18:06:52.495Z,41.68
2022-08-12T18:09:24.496Z,41.30
2022-08-12T18:12:12.417Z,41.09
2022-08-12T18:14:41.694Z,40.83
2022-08-12T18:17:18.029Z,40.70
2022-08-12T18:20:06.429Z,40.58
2022-08-12T18:22:35.108Z,40.26
2022-08-12T18:25:06.963Z,40.06
2022-08-12T18:28:15.453Z,39.80
2022-08-12T18:30:45.424Z,39.41
2022-08-12T18:33:25.166Z,39.00
2022-08-12T18:35:55.502Z,38.63
2022-08-12T18:38:28.042Z,38.28
2022-08-12T18:41:20.755Z,37.94
2022-08-12T18:43:59.533Z,37.64
2022-08-12T18:46:53.856Z,37.39
2022-08-12T18:49:29.766Z,37.17
2022-08-12T18:52:04.269Z,36.97
2022-08-12T18:54:35.141Z,36.80
2022-08-12T18:57:16.763Z,36.63
2022-08-12T19:00:02.575Z,36.48
2022-08-12T19:02:38.994Z,36.32
2022-08-12T19:05:11.391Z,36.18
2022-08-12T19:07:49.672Z,36.03
2022-08-12T19:10:28.858Z,35.91
2022-08-12T19:13:24.322Z,35.83
2022-08-12T19:15:54.729Z,35.69
2022-08-12T19:18:24.416Z,35.58
2022-08-12T19:20:52.664Z,35.45
2022-08-12T19:23:22.457Z,35.40
2022-08-12T19:25:55.398Z,35.24
2022-08-12T19:28:35.461Z,34.59
2022-08-12T19:31:56.890Z,33.94
2022-08-12T19:37:17.180Z,33.21
2022-08-12T19:40:10.003Z,33.15
2022-08-12T19:42:33.995Z,33.12
2022-08-12T19:45:04.976Z,33.11
2022-08-12T19:47:38.757Z,33.14
2022-08-12T19:50:11.130Z,33.19
2022-08-12T19:52:41.699Z,33.20
2022-08-12T19:55:11.475Z,33.20
2022-08-12T19:58:02.678Z,33.16
2022-08-12T20:00:35.230Z,33.02
2022-08-12T20:03:05.382Z,32.91
2022-08-12T20:06:05.843Z,32.85
2022-08-12T20:08:31.655Z,32.75
2022-08-12T20:12:13.855Z,32.56
2022-08-12T20:14:00.173Z,32.53
2022-08-12T20:19:52.863Z,32.51
2022-08-12T20:22:24.016Z,32.41
2022-08-12T20:24:57.694Z,32.31
2022-08-12T20:28:02.810Z,32.25
2022-08-12T20:30:52.171Z,32.18
2022-08-12T20:33:23.258Z,32.12
2022-08-12T20:36:13.006Z,32.08
2022-08-12T20:38:52.803Z,32.03
2022-08-12T20:41:25.194Z,31.99
2022-08-12T20:43:55.852Z,31.94
2022-08-12T20:46:31.773Z,31.90
2022-08-12T20:49:14.512Z,31.86
2022-08-12T20:51:54.963Z,31.84
2022-08-12T20:54:32.860Z,31.80
2022-08-12T20:57:07.342Z,31.75
2022-08-12T20:59:47.754Z,31.74
2022-08-12T21:02:16.378Z,31.70
2022-08-12T21:05:16.158Z,31.64
2022-08-12T21:07:52.070Z,31.57
2022-08-12T21:10:21.325Z,31.47
2022-08-12T21:12:54.977Z,31.33
2022-08-12T21:15:30.722Z,31.21
2022-08-12T21:18:28.719Z,31.10
2022-08-12T21:21:00.015Z,30.94
2022-08-12T21:23:30.877Z,30.85
2022-08-12T21:26:06.104Z,30.75
2022-08-12T21:28:39.765Z,30.64
2022-08-12T21:32:36.084Z,30.50
2022-08-12T21:34:07.016Z,30.37
2022-08-12T21:36:40.270Z,30.26
2022-08-12T21:39:18.624Z,30.19
2022-08-12T21:41:51.540Z,30.13
2022-08-12T21:44:24.062Z,30.04
2022-08-12T21:47:12.098Z,29.94
2022-08-12T21:49:55.558Z,29.87
2022-08-12T21:52:40.562Z,29.76
2022-08-12T21:55:18.784Z,29.67
2022-08-12T21:57:53.627Z,29.62
2022-08-12T22:00:32.161Z,29.58
2022-08-12T22:04:04.446Z,29.53
2022-08-12T22:06:31.373Z,29.43
2022-08-12T22:09:16.078Z,29.35
2022-08-12T22:11:56.129Z,29.26
2022-08-12T22:14:25.099Z,29.21
2022-08-12T22:16:54.604Z,29.13
2022-08-12T22:19:27.231Z,29.04
2022-08-12T22:21:56.204Z,28.97
2022-08-12T22:24:30.459Z,28.89
2022-08-12T22:27:17.843Z,28.80
2022-08-12T22:30:05.308Z,28.68
2022-08-12T22:32:33.733Z,28.64
2022-08-12T22:35:21.957Z,28.60
2022-08-12T22:37:53.498Z,28.58
2022-08-12T22:40:25.341Z,28.51
2022-08-12T22:43:15.554Z,28.45
2022-08-12T22:46:01.717Z,28.29
2022-08-12T22:48:30.589Z,28.22
2022-08-12T22:51:00.430Z,28.18
2022-08-12T22:53:35.859Z,28.16
2022-08-12T22:56:07.256Z,28.14
2022-08-12T22:58:40.191Z,28.11
2022-08-12T23:01:10.869Z,28.05
2022-08-12T23:03:47.755Z,27.98
2022-08-12T23:06:19.892Z,27.88
2022-08-12T23:08:48.387Z,27.84
2022-08-12T23:11:23.315Z,27.85
2022-08-12T23:13:54.881Z,27.93
2022-08-12T23:16:31.169Z,27.94
2022-08-12T23:19:10.368Z,27.91
2022-08-12T23:22:03.612Z,27.83
2022-08-12T23:24:35.881Z,27.71
2022-08-12T23:27:23.185Z,27.61
2022-08-12T23:30:17.298Z,27.53
2022-08-12T23:32:41.257Z,27.47
2022-08-12T23:35:10.287Z,27.46
2022-08-12T23:37:53.917Z,27.44
2022-08-12T23:40:24.423Z,27.40
2022-08-12T23:42:57.026Z,27.28
2022-08-12T23:45:31.295Z,27.24
2022-08-12T23:48:00.314Z,27.20
2022-08-12T23:50:33.908Z,27.16
2022-08-12T23:53:17.222Z,27.14
2022-08-12T23:55:54.832Z,27.12
2022-08-12T23:58:27.605Z,27.12
